Time;durP1;ratioP1;P1;durP2;ratioP2;P2;SDS_P1;SDS_P2;PMS_P1;PMS_P2;Temp;Humidity;BMP_temperature;BMP_pressure;BME280_temperature;BME280_humidity;BME280_pressure;Samples;Min_cycle;Max_cycle;Signal;HPM_P1;HPM_P2
2022/06/12 00:02:04;;;;;;;1.58;1.48;;;;;;;26.03;34.63;97098.34;5137295;27;20023;-28
2022/06/12 00:04:30;;;;;;;3.30;1.27;;;;;;;25.93;35.15;97099.16;5135860;27;20372;-28
2022/06/12 00:06:55;;;;;;;1.95;1.35;;;;;;;26.07;34.60;97089.75;5137234;27;20024;-27
2022/06/12 00:09:21;;;;;;;2.55;1.30;;;;;;;26.10;34.27;97091.47;5137840;27;20367;-28
2022/06/12 00:11:46;;;;;;;1.60;1.50;;;;;;;26.06;34.72;97091.00;5136972;27;20489;-28
2022/06/12 00:14:17;;;;;;;3.53;1.48;;;;;;;26.09;34.00;97098.31;5137300;27;20495;-28
2022/06/12 00:16:45;;;;;;;1.75;1.30;;;;;;;26.07;34.88;97096.06;5137010;27;20536;-28
2022/06/12 00:19:11;;;;;;;1.98;1.33;;;;;;;26.09;34.64;97099.06;5136947;27;20027;-28
2022/06/12 00:21:38;;;;;;;1.58;1.38;;;;;;;26.11;34.43;97093.75;5137013;27;20027;-28
2022/06/12 00:24:13;;;;;;;1.48;1.23;;;;;;;25.98;34.83;97099.13;5136947;27;20027;-27
2022/06/12 00:26:48;;;;;;;2.22;1.25;;;;;;;26.07;34.35;97103.66;5136801;27;20023;-28
2022/06/12 00:29:24;;;;;;;2.50;1.38;;;;;;;26.06;34.42;97094.56;5136883;27;20460;-28
2022/06/12 00:31:56;;;;;;;1.52;1.27;;;;;;;26.03;34.47;97090.00;5136875;27;20379;-28
2022/06/12 00:34:26;;;;;;;2.08;1.27;;;;;;;26.08;34.75;97094.78;5137153;27;20023;-29
2022/06/12 00:36:53;;;;;;;2.17;1.50;;;;;;;26.10;34.52;97085.91;5136526;27;20035;-29
2022/06/12 00:39:20;;;;;;;1.60;1.42;;;;;;;26.11;34.62;97090.22;5136815;27;20023;-28
2022/06/12 00:41:49;;;;;;;1.88;1.42;;;;;;;26.04;34.85;97091.53;5136486;27;20034;-28
2022/06/12 00:44:19;;;;;;;1.45;1.35;;;;;;;26.08;34.52;97092.00;5136482;27;20023;-28
2022/06/12 00:46:59;;;;;;;1.25;1.15;;;;;;;26.07;34.68;97096.06;5134258;27;20468;-28
2022/06/12 00:49:33;;;;;;;1.40;1.30;;;;;;;26.02;34.92;97096.84;5134474;27;20049;-28
2022/06/12 00:52:23;;;;;;;2.10;1.70;;;;;;;25.98;35.03;97098.38;5136218;27;20468;-27
2022/06/12 00:54:53;;;;;;;1.83;1.40;;;;;;;25.98;34.45;97090.78;5136293;27;20027;-29
2022/06/12 00:57:21;;;;;;;2.10;1.45;;;;;;;26.06;34.93;97093.78;5136827;27;20028;-28
2022/06/12 01:00:09;;;;;;;1.50;1.40;;;;;;;26.01;34.67;97087.00;5136362;27;20076;-28
2022/06/12 01:02:36;;;;;;;2.55;1.42;;;;;;;25.92;34.78;97092.84;5136267;27;20117;-28
2022/06/12 01:07:52;;;;;;;2.53;1.52;;;;;;;26.00;34.93;97093.81;5136084;27;20034;-28
2022/06/12 01:10:20;;;;;;;2.53;1.50;;;;;;;25.98;34.58;97085.22;5135836;27;20031;-28
2022/06/12 01:12:52;;;;;;;1.58;1.45;;;;;;;26.03;34.75;97081.66;5135816;27;20051;-28
2022/06/12 01:15:27;;;;;;;2.63;1.20;;;;;;;26.01;34.95;97084.22;5135990;27;20031;-28
2022/06/12 01:17:53;;;;;;;1.48;1.20;;;;;;;25.96;34.43;97087.78;5136026;27;20030;-28
2022/06/12 01:20:27;;;;;;;1.50;1.40;;;;;;;25.91;34.43;97080.22;5135657;27;20046;-28
2022/06/12 01:23:17;;;;;;;1.92;1.33;;;;;;;25.96;34.90;97078.69;5136055;27;20027;-27
2022/06/12 01:25:48;;;;;;;2.28;1.60;;;;;;;25.76;34.68;97069.44;5117260;27;20469;-28
2022/06/12 01:28:26;;;;;;;1.88;1.50;;;;;;;25.96;34.67;97073.91;5135680;27;20027;-28
2022/06/12 01:31:00;;;;;;;1.67;1.58;;;;;;;25.96;34.61;97073.91;5135562;27;20498;-28
2022/06/12 01:33:55;;;;;;;1.90;1.20;;;;;;;26.00;34.95;97073.59;5135471;27;20027;-29
2022/06/12 01:36:48;;;;;;;1.63;1.33;;;;;;;25.94;35.05;97076.44;5126079;27;20031;-28
2022/06/12 01:39:23;;;;;;;1.73;1.63;;;;;;;25.97;34.81;97069.81;5135582;27;20044;-28
2022/06/12 01:41:51;;;;;;;1.35;1.23;;;;;;;25.99;34.41;97067.28;5135307;27;20034;-28
2022/06/12 01:44:23;;;;;;;1.40;1.30;;;;;;;25.94;34.74;97065.31;5135231;27;20023;-28
2022/06/12 01:47:03;;;;;;;1.65;1.30;;;;;;;25.79;34.92;97064.88;5135322;27;20019;-30
2022/06/12 01:49:41;;;;;;;1.50;1.20;;;;;;;25.87;34.56;97059.53;5135265;27;20022;-28
2022/06/12 01:52:31;;;;;;;1.42;1.30;;;;;;;25.94;34.94;97070.09;5135269;27;20021;-28
2022/06/12 01:55:07;;;;;;;2.25;1.27;;;;;;;25.94;34.76;97072.88;5134603;27;20559;-28
2022/06/12 01:58:21;;;;;;;1.50;1.40;;;;;;;25.94;34.45;97070.88;5135164;27;20079;-28
2022/06/12 02:00:56;;;;;;;2.58;1.48;;;;;;;25.93;34.90;97074.91;5044300;27;20041;-29
2022/06/12 02:03:29;;;;;;;1.80;1.42;;;;;;;25.93;34.91;97080.47;5135235;27;20418;-28
2022/06/12 02:06:18;;;;;;;1.80;1.48;;;;;;;25.93;34.60;97082.50;5135036;27;20023;-27
2022/06/12 02:08:55;;;;;;;1.50;1.10;;;;;;;25.95;34.45;97072.38;5134364;27;20035;-29
2022/06/12 02:14:14;;;;;;;2.50;1.42;;;;;;;25.99;34.95;97077.66;5135406;27;20112;-29
2022/06/12 02:16:45;;;;;;;1.63;1.30;;;;;;;25.98;34.95;97071.34;5134432;27;20027;-28
2022/06/12 02:19:17;;;;;;;2.45;1.50;;;;;;;25.97;34.59;97074.63;5134809;27;20045;-28
2022/06/12 02:21:58;;;;;;;2.00;1.48;;;;;;;25.94;34.54;97076.44;5134817;27;20019;-27
2022/06/12 02:24:32;;;;;;;1.40;1.30;;;;;;;25.88;34.52;97084.03;5134760;27;20030;-28
2022/06/12 02:27:02;;;;;;;1.73;1.30;;;;;;;25.95;34.71;97077.94;5134564;27;20025;-27
2022/06/12 02:29:40;;;;;;;1.30;1.20;;;;;;;25.99;34.96;97089.53;5134566;27;20023;-28
2022/06/12 02:32:12;;;;;;;1.40;1.15;;;;;;;25.98;34.58;97082.44;5134583;27;20019;-28
2022/06/12 02:34:40;;;;;;;;;;;;;;;25.93;34.77;97076.94;5116657;27;20023;-28
2022/06/12 02:37:25;;;;;;;1.58;1.40;;;;;;;25.96;34.87;97085.00;5134317;27;19915;-27
2022/06/12 02:40:00;;;;;;;3.92;1.52;;;;;;;25.95;34.47;97086.28;5134683;27;20065;-28
2022/06/12 02:42:31;;;;;;;2.58;1.48;;;;;;;25.95;34.76;97083.50;5134468;27;20035;-29
2022/06/12 02:45:09;;;;;;;2.00;1.25;;;;;;;25.94;34.85;97095.88;5134391;28;20046;-27
2022/06/12 02:47:37;;;;;;;2.20;1.60;;;;;;;25.93;34.45;97090.84;5134563;28;20023;-28
2022/06/12 02:50:04;;;;;;;1.83;1.20;;;;;;;25.97;34.30;97103.16;5134272;28;20106;-28
2022/06/12 02:53:17;;;;;;;1.50;1.20;;;;;;;25.95;34.79;97099.41;5134452;28;20037;-28
2022/06/12 02:56:10;;;;;;;1.50;1.33;;;;;;;25.94;34.85;97098.66;5112014;28;20390;-28
2022/06/12 02:58:55;;;;;;;1.50;1.40;;;;;;;25.91;34.50;97093.38;5134300;28;20031;-30
2022/06/12 03:01:31;;;;;;;1.38;1.23;;;;;;;25.91;34.59;97091.34;5134507;28;20080;-28
2022/06/12 03:04:21;;;;;;;2.80;1.58;;;;;;;25.92;34.86;97095.63;5134433;28;20035;-28
2022/06/12 03:06:46;;;;;;;1.80;1.65;;;;;;;25.93;34.86;97097.16;5136486;27;20026;-28
2022/06/12 03:09:12;;;;;;;1.48;1.38;;;;;;;25.91;34.54;97088.56;5138617;27;20019;-29
2022/06/12 03:11:41;;;;;;;2.00;1.50;;;;;;;25.92;34.51;97100.44;5138205;27;20115;-28
2022/06/12 03:14:14;;;;;;;3.50;1.45;;;;;;;25.89;34.48;97099.44;5138283;27;20126;-28
2022/06/12 03:16:42;;;;;;;1.73;1.40;;;;;;;25.91;34.62;97105.22;5138450;27;20102;-28
2022/06/12 03:19:13;;;;;;;2.50;1.48;;;;;;;25.94;34.53;97100.69;5138171;27;20019;-28
2022/06/12 03:22:12;;;;;;;1.67;1.27;;;;;;;25.91;34.92;97108.00;5138297;27;20015;-28
2022/06/12 03:25:30;;;;;;;2.25;1.30;;;;;;;25.93;34.64;97110.28;5138175;27;20486;-28
2022/06/12 03:28:19;;;;;;;3.42;1.20;;;;;;;25.76;34.55;97100.00;5034752;28;20037;-28
2022/06/12 03:31:09;;;;;;;1.60;1.30;;;;;;;25.87;34.67;97099.19;5034750;28;20530;-28
2022/06/12 03:33:50;;;;;;;1.20;1.10;;;;;;;25.79;34.71;97098.22;5034887;28;20608;-27
2022/06/12 03:36:18;;;;;;;1.67;1.42;;;;;;;25.85;34.81;97096.16;5034510;28;20623;-28
2022/06/12 03:38:52;;;;;;;2.22;1.30;;;;;;;25.90;34.42;97106.50;5034498;28;20521;-28
2022/06/12 03:41:50;;;;;;;1.40;1.30;;;;;;;25.82;34.65;97111.09;5034492;28;20040;-28
2022/06/12 03:44:37;;;;;;;1.90;1.42;;;;;;;25.91;34.57;97107.25;5034617;28;20044;-28
2022/06/12 03:47:25;;;;;;;1.52;1.42;;;;;;;25.91;34.69;97110.78;5034367;28;20026;-28
2022/06/12 03:50:00;;;;;;;1.40;1.10;;;;;;;25.87;34.79;97109.53;5034515;28;20066;-28
2022/06/12 03:52:48;;;;;;;1.63;1.42;;;;;;;25.74;34.85;97112.88;5034350;28;20033;-28
2022/06/12 03:57:50;;;;;;;1.65;1.30;;;;;;;25.81;34.71;97117.91;5034354;28;20034;-29
2022/06/12 03:58:12;;;;;;;1.45;1.20;;;;;;;25.78;34.56;97116.16;5034102;28;20052;-29
2022/06/12 04:00:41;;;;;;;1.30;1.20;;;;;;;25.79;34.53;97111.34;5043549;27;20036;-28
2022/06/12 04:03:29;;;;;;;2.35;1.23;;;;;;;25.82;34.77;97118.69;5137570;27;20034;-28
2022/06/12 04:06:01;;;;;;;1.33;1.23;;;;;;;25.84;34.84;97124.47;5118192;27;20413;-29
2022/06/12 04:08:39;;;;;;;1.40;1.30;;;;;;;25.86;34.88;97119.91;5137356;27;20023;-28
2022/06/12 04:11:07;;;;;;;1.73;1.58;;;;;;;25.93;34.32;97113.06;5137298;27;20072;-28
2022/06/12 04:13:37;;;;;;;1.85;1.20;;;;;;;25.91;34.27;97112.81;5136935;27;20047;-27
2022/06/12 04:16:12;;;;;;;1.40;1.30;;;;;;;25.83;34.81;97111.84;5137023;27;20024;-28
2022/06/12 04:18:38;;;;;;;2.40;1.40;;;;;;;25.76;34.53;97110.34;5136886;27;20029;-28
2022/06/12 04:21:22;;;;;;;2.08;1.30;;;;;;;25.73;34.67;97117.69;5137105;27;20475;-28
2022/06/12 04:23:56;;;;;;;1.63;1.35;;;;;;;25.85;34.53;97123.19;5137315;27;20114;-29
2022/06/12 04:26:35;;;;;;;1.70;1.40;;;;;;;25.65;34.66;97122.28;5137063;27;20033;-27
2022/06/12 04:29:13;;;;;;;1.40;1.30;;;;;;;25.73;34.67;97122.47;5137225;27;20030;-28
2022/06/12 04:31:47;;;;;;;2.38;1.85;;;;;;;25.78;34.53;97130.06;5136996;27;20027;-28
2022/06/12 04:34:15;;;;;;;1.60;1.27;;;;;;;25.75;34.76;97131.06;5136787;27;20475;-28
2022/06/12 04:36:44;;;;;;;1.88;1.13;;;;;;;25.78;34.65;97124.50;5136442;27;20525;-27
2022/06/12 04:39:12;;;;;;;1.50;1.40;;;;;;;25.81;34.44;97131.06;5136673;27;20076;-28
2022/06/12 04:41:38;;;;;;;2.67;1.30;;;;;;;25.75;34.78;97125.50;5136620;27;20046;-28
2022/06/12 04:44:05;;;;;;;1.30;1.20;;;;;;;25.76;34.76;97127.03;5136550;27;20467;-28
2022/06/12 04:46:33;;;;;;;1.70;1.48;;;;;;;25.80;34.79;97124.75;5136795;27;20019;-27
2022/06/12 04:48:59;;;;;;;1.30;1.20;;;;;;;25.81;34.54;97123.47;5136387;27;20106;-28
2022/06/12 04:51:25;;;;;;;1.38;1.27;;;;;;;25.84;34.65;97128.00;5136413;27;20528;-29
2022/06/12 04:53:52;;;;;;;1.88;1.65;;;;;;;25.76;34.72;97125.00;5136343;27;20114;-28
2022/06/12 04:56:19;;;;;;;1.60;1.33;;;;;;;25.73;34.80;97125.25;5136374;27;20471;-28
2022/06/12 04:58:45;;;;;;;1.58;1.40;;;;;;;25.81;34.82;97129.03;5136263;27;20027;-28
2022/06/12 05:01:11;;;;;;;1.83;1.30;;;;;;;25.79;34.67;97128.78;5136281;27;20383;-29
2022/06/12 05:03:37;;;;;;;1.60;1.30;;;;;;;25.84;34.47;97132.81;5136241;27;20368;-29
2022/06/12 05:06:03;;;;;;;1.50;1.30;;;;;;;25.73;34.79;97139.16;5136064;27;20030;-28
2022/06/12 05:08:30;;;;;;;1.30;1.20;;;;;;;25.75;34.92;97139.41;5136293;27;20050;-27
2022/06/12 05:10:55;;;;;;;1.65;1.55;;;;;;;25.82;34.80;97135.34;5135955;27;20038;-28
2022/06/12 05:13:21;;;;;;;1.60;1.35;;;;;;;25.75;34.99;97136.63;5136182;27;20039;-29
2022/06/12 05:15:46;;;;;;;1.70;1.45;;;;;;;25.63;35.02;97133.13;5136072;27;20393;-28
2022/06/12 05:18:14;;;;;;;1.30;1.20;;;;;;;25.61;35.44;97132.13;5135817;27;20020;-28
2022/06/12 05:20:40;;;;;;;1.30;1.10;;;;;;;25.68;35.06;97135.13;5135723;27;20031;-29
2022/06/12 05:23:07;;;;;;;1.30;1.20;;;;;;;25.75;35.06;97129.03;5135967;27;20027;-28
2022/06/12 05:25:33;;;;;;;2.85;1.30;;;;;;;25.73;34.75;97131.56;5135604;27;20031;-28
2022/06/12 05:28:00;;;;;;;1.90;1.35;;;;;;;25.62;35.23;97130.84;5127721;27;20016;-28
2022/06/12 05:30:28;;;;;;;1.90;1.55;;;;;;;25.72;35.16;97132.84;5121032;27;20132;-28
2022/06/12 05:32:57;;;;;;;2.45;1.30;;;;;;;25.81;34.86;97145.69;5113012;28;20069;-27
2022/06/12 05:35:23;;;;;;;2.33;1.55;;;;;;;25.71;35.17;97130.59;5113892;27;20031;-28
2022/06/12 05:37:50;;;;;;;1.40;1.30;;;;;;;25.80;35.06;97135.09;5133695;27;20037;-28
2022/06/12 05:40:22;;;;;;;1.40;1.30;;;;;;;25.62;35.12;97150.31;5133295;27;20035;-27
2022/06/12 05:42:49;;;;;;;1.60;1.50;;;;;;;25.55;35.19;97142.47;5133535;27;20079;-29
2022/06/12 05:45:17;;;;;;;1.40;1.25;;;;;;;25.61;35.07;97146.75;5133425;27;20375;-28
2022/06/12 05:47:55;;;;;;;1.42;1.30;;;;;;;25.44;35.83;97139.72;5112860;28;20055;-27
2022/06/12 05:50:24;;;;;;;2.65;1.60;;;;;;;25.65;35.29;97143.72;5111618;28;20023;-27
2022/06/12 05:52:50;;;;;;;1.52;1.40;;;;;;;25.59;35.48;97148.53;5110882;28;20031;-28
2022/06/12 05:55:15;;;;;;;1.40;1.30;;;;;;;25.72;35.23;97143.19;5112622;28;20484;-28
2022/06/12 05:57:41;;;;;;;2.08;1.63;;;;;;;25.62;35.60;97145.50;5112473;28;20111;-29
2022/06/12 06:00:12;;;;;;;1.42;1.30;;;;;;;25.78;35.28;97157.84;5112371;28;20028;-28
2022/06/12 06:02:38;;;;;;;3.97;1.35;;;;;;;25.65;35.46;97155.59;5112146;28;20106;-28
2022/06/12 06:05:06;;;;;;;1.60;1.50;;;;;;;25.60;35.30;97150.03;5112659;28;20102;-28
2022/06/12 06:07:33;;;;;;;2.65;1.55;;;;;;;25.59;35.60;97167.97;5112544;28;20019;-28
2022/06/12 06:09:59;;;;;;;1.63;1.50;;;;;;;25.55;35.61;97154.34;5112437;28;20110;-28
2022/06/12 06:12:24;;;;;;;2.05;1.60;;;;;;;25.67;35.50;97150.28;5112241;28;20044;-27
2022/06/12 06:14:50;;;;;;;4.47;1.50;;;;;;;25.55;35.54;97161.91;5112163;28;20084;-28
2022/06/12 06:17:15;;;;;;;1.98;1.40;;;;;;;25.59;35.66;97173.53;5093795;28;20027;-29
2022/06/12 06:19:41;;;;;;;1.95;1.38;;;;;;;25.52;35.58;97174.78;5112270;28;20024;-28
2022/06/12 06:22:06;;;;;;;1.40;1.30;;;;;;;25.54;35.09;97172.28;5114813;27;20029;-27
2022/06/12 06:24:32;;;;;;;2.03;1.40;;;;;;;25.42;35.71;97171.53;5132622;27;20031;-28
2022/06/12 06:27:00;;;;;;;2.88;1.63;;;;;;;25.26;36.10;97183.41;5132330;27;20491;-27
2022/06/12 06:29:25;;;;;;;1.50;1.40;;;;;;;25.28;35.83;97188.47;5132691;27;20027;-27
2022/06/12 06:31:51;;;;;;;1.55;1.45;;;;;;;25.52;35.42;97190.69;5132782;27;20368;-28
2022/06/12 06:34:16;;;;;;;1.98;1.48;;;;;;;25.64;35.36;97197.78;5132700;27;20039;-27
2022/06/12 06:36:41;;;;;;;1.27;1.15;;;;;;;25.73;35.42;97195.47;5132510;27;20371;-28
2022/06/12 06:39:07;;;;;;;2.10;1.42;;;;;;;25.76;35.13;97190.91;5132200;27;20476;-27
2022/06/12 06:41:32;;;;;;;2.28;1.60;;;;;;;25.55;35.58;97192.47;5132448;27;20019;-28
2022/06/12 06:46:43;;;;;;;1.48;1.20;;;;;;;25.66;35.20;97184.13;5132658;28;20021;-28
2022/06/12 06:49:09;;;;;;;1.67;1.35;;;;;;;25.60;35.61;97188.91;5132239;28;20389;-28
2022/06/12 06:51:34;;;;;;;1.42;1.30;;;;;;;25.55;35.54;97182.13;5131993;28;20026;-28
2022/06/12 06:54:00;;;;;;;1.55;1.40;;;;;;;25.52;35.60;97187.94;5130388;28;20031;-28
2022/06/12 06:56:26;;;;;;;2.00;1.50;;;;;;;25.33;36.27;97182.94;5132232;28;20431;-28
2022/06/12 06:58:52;;;;;;;1.75;1.55;;;;;;;25.35;35.72;97194.25;5132264;28;20031;-28
2022/06/12 07:01:18;;;;;;;3.35;1.65;;;;;;;25.37;35.86;97191.72;5132297;28;20023;-29
2022/06/12 07:03:44;;;;;;;2.15;1.60;;;;;;;25.36;36.21;97200.56;5132037;28;20030;-28
2022/06/12 07:06:15;;;;;;;1.50;1.40;;;;;;;25.25;36.24;97195.03;5132250;28;20053;-27
2022/06/12 07:08:40;;;;;;;2.38;1.60;;;;;;;25.20;36.48;97196.56;5132141;28;20023;-29
2022/06/12 07:11:06;;;;;;;1.92;1.40;;;;;;;25.07;36.34;97190.75;5132191;28;20075;-28
2022/06/12 07:13:31;;;;;;;3.00;1.60;;;;;;;25.36;35.97;97201.31;5116533;28;20169;-28
2022/06/12 07:15:57;;;;;;;3.58;1.48;;;;;;;25.57;35.87;97203.84;5111062;28;20050;-29
2022/06/12 07:18:22;;;;;;;1.63;1.50;;;;;;;25.62;35.51;97198.28;5111495;28;20070;-27
2022/06/12 07:20:52;;;;;;;10.13;1.85;;;;;;;25.46;35.46;97204.63;5111704;28;20039;-29
2022/06/12 07:23:20;;;;;;;1.55;1.38;;;;;;;25.14;36.50;97204.13;5098733;28;20024;-28
2022/06/12 07:25:51;;;;;;;1.73;1.23;;;;;;;25.35;35.95;97197.03;5091143;28;20109;-28
2022/06/12 07:28:17;;;;;;;2.83;1.42;;;;;;;25.65;35.39;97196.50;5090965;28;20027;-28
2022/06/12 07:30:43;;;;;;;2.60;1.42;;;;;;;25.68;35.58;97199.03;5091207;28;20028;-31
2022/06/12 07:33:09;;;;;;;1.60;1.50;;;;;;;25.14;36.32;97195.03;5091097;28;20020;-29
2022/06/12 07:35:37;;;;;;;1.33;1.20;;;;;;;25.13;36.32;97194.28;5091020;28;20499;-28
2022/06/12 07:38:03;;;;;;;1.98;1.35;;;;;;;25.38;35.72;97195.28;5090983;28;20029;-28
2022/06/12 07:40:33;;;;;;;1.38;1.27;;;;;;;25.13;36.24;97191.50;5090712;28;20032;-28
2022/06/12 07:42:59;;;;;;;2.03;1.63;;;;;;;25.27;35.94;97186.97;5097184;28;20047;-28
2022/06/12 07:45:24;;;;;;;1.85;1.52;;;;;;;24.98;36.42;97188.22;5109351;28;20023;-28
2022/06/12 07:47:50;;;;;;;3.40;1.40;;;;;;;25.01;36.09;97187.97;5111456;28;20024;-28
2022/06/12 07:50:15;;;;;;;1.77;1.67;;;;;;;25.10;36.24;97189.72;5110898;28;20028;-27
2022/06/12 07:52:42;;;;;;;1.95;1.77;;;;;;;25.37;35.64;97180.63;5111061;28;20490;-28
2022/06/12 07:55:10;;;;;;;4.95;1.83;;;;;;;25.17;36.06;97175.34;5114939;28;20034;-28
2022/06/12 07:57:37;;;;;;;1.52;1.42;;;;;;;25.58;35.29;97175.56;5115048;28;20379;-28
2022/06/12 08:00:05;;;;;;;1.98;1.60;;;;;;;25.71;35.39;97161.91;5114772;28;20099;-28
2022/06/12 08:02:31;;;;;;;2.80;1.75;;;;;;;25.30;35.66;97161.72;5114722;28;20076;-28
2022/06/12 08:04:56;;;;;;;3.03;1.48;;;;;;;25.29;35.57;97159.44;5114912;28;20020;-30
2022/06/12 08:07:22;;;;;;;2.65;1.60;;;;;;;25.10;36.09;97153.66;5114611;28;20027;-28
2022/06/12 08:09:48;;;;;;;2.97;1.52;;;;;;;25.08;35.89;97163.78;5114823;28;20030;-28
2022/06/12 08:12:13;;;;;;;4.03;1.75;;;;;;;24.98;35.88;97154.91;5119255;27;20480;-27
2022/06/12 08:14:39;;;;;;;3.63;1.70;;;;;;;25.36;35.50;97153.38;5133264;27;20031;-28
2022/06/12 08:17:05;;;;;;;2.50;1.83;;;;;;;25.09;35.90;97159.72;5122128;27;20023;-29
2022/06/12 08:22:16;;;;;;;3.38;1.52;;;;;;;25.13;35.68;97169.31;5121902;27;20045;-27
2022/06/12 08:24:42;;;;;;;4.93;1.70;;;;;;;25.23;35.72;97167.78;5114511;28;20054;-28
2022/06/12 08:27:07;;;;;;;1.85;1.60;;;;;;;25.20;35.56;97160.47;5114110;28;20023;-29
2022/06/12 08:29:33;;;;;;;2.85;1.73;;;;;;;25.45;35.18;97171.78;5114414;28;20429;-27
2022/06/12 08:32:04;;;;;;;2.03;1.40;;;;;;;25.38;35.58;97165.47;5114259;28;20126;-28
2022/06/12 08:34:39;;;;;;;3.17;1.52;;;;;;;25.64;35.47;97158.88;5124455;27;20047;-28
2022/06/12 08:37:12;;;;;;;1.60;1.50;;;;;;;25.75;34.84;97159.59;5136549;27;20027;-28
2022/06/12 08:39:38;;;;;;;4.63;1.58;;;;;;;25.64;34.76;97161.66;5136710;27;20027;-27
2022/06/12 08:42:24;;;;;;;3.17;1.50;;;;;;;25.61;34.66;97160.66;5136785;27;20027;-28
2022/06/12 08:44:55;;;;;;;2.10;1.60;;;;;;;25.82;34.84;97157.56;5136727;27;20466;-30
2022/06/12 08:47:28;;;;;;;2.95;1.60;;;;;;;25.69;35.21;97160.91;5136472;27;20053;-28
2022/06/12 08:50:01;;;;;;;;;;;;;;;25.69;35.00;97152.56;5136410;27;20026;-28
2022/06/12 08:52:54;;;;;;;1.88;1.60;;;;;;;25.74;34.84;97162.88;5136521;27;19911;-28
2022/06/12 08:55:44;;;;;;;2.55;1.50;;;;;;;25.75;35.21;97158.84;5136110;27;20031;-28
2022/06/12 08:58:29;;;;;;;3.60;1.60;;;;;;;25.73;35.15;97155.81;5136392;27;20026;-28
2022/06/12 09:00:55;;;;;;;3.38;2.00;;;;;;;25.62;34.87;97159.38;5136380;27;20425;-27
2022/06/12 09:03:24;;;;;;;4.25;1.50;;;;;;;25.74;35.02;97162.88;5135212;27;20026;-27
2022/06/12 09:06:27;;;;;;;5.40;1.65;;;;;;;25.67;35.07;97163.44;5136283;27;20021;-28
2022/06/12 09:08:58;;;;;;;2.33;1.63;;;;;;;25.75;35.23;97162.38;5090402;27;20039;-27
2022/06/12 09:11:44;;;;;;;1.50;1.40;;;;;;;25.85;34.51;97164.88;5135708;27;20034;-28
2022/06/12 09:14:17;;;;;;;1.60;1.48;;;;;;;25.88;34.75;97161.06;5135417;27;20503;-28
2022/06/12 09:16:54;;;;;;;3.50;1.60;;;;;;;25.90;34.93;97156.53;5135925;27;20467;-28
2022/06/12 09:19:41;;;;;;;2.47;1.98;;;;;;;25.80;35.36;97168.44;5135865;27;20452;-28
2022/06/12 09:22:23;;;;;;;3.40;1.80;;;;;;;25.84;35.08;97178.00;5135938;27;20505;-29
2022/06/12 09:25:15;;;;;;;3.72;1.92;;;;;;;25.90;34.49;97181.53;5135861;27;20031;-28
2022/06/12 09:28:04;;;;;;;1.95;1.77;;;;;;;25.83;35.00;97179.28;5136065;27;20379;-29
2022/06/12 09:30:36;;;;;;;2.95;1.77;;;;;;;25.86;34.81;97169.91;5135772;27;20023;-28
2022/06/12 09:33:07;;;;;;;1.75;1.65;;;;;;;25.85;34.88;97179.53;5135675;27;20034;-28
2022/06/12 09:35:45;;;;;;;3.65;1.60;;;;;;;25.83;34.66;97176.53;5135213;27;20379;-28
2022/06/12 09:39:01;;;;;;;2.72;1.90;;;;;;;25.91;34.40;97166.38;5135233;27;20027;-28
2022/06/12 09:41:51;;;;;;;1.92;1.42;;;;;;;25.91;34.29;97171.94;5052459;28;20493;-28
2022/06/12 09:44:19;;;;;;;2.67;1.60;;;;;;;25.86;34.27;97175.47;5048264;28;20029;-29
2022/06/12 09:47:19;;;;;;;1.83;1.52;;;;;;;25.95;34.36;97169.66;5050060;28;20114;-29
2022/06/12 09:50:03;;;;;;;1.85;1.52;;;;;;;25.94;34.08;97159.81;5028339;28;20041;-28
2022/06/12 09:52:46;;;;;;;2.35;1.50;;;;;;;25.93;34.20;97158.28;5037995;28;20543;-27
2022/06/12 09:55:19;;;;;;;;;;;;;;;25.98;33.98;97143.59;5047923;28;20033;-29
2022/06/12 09:58:08;;;;;;;;;;;;;;;25.97;33.96;97150.41;5050796;28;19970;-29
2022/06/12 10:00:42;;;;;;;2.28;1.63;;;;;;;26.00;34.13;97148.63;5043966;28;20311;-28
2022/06/12 10:03:39;;;;;;;1.50;1.40;;;;;;;25.98;33.73;97157.50;5052073;28;20048;-28
2022/06/12 10:06:25;;;;;;;1.40;1.30;;;;;;;26.05;33.53;97156.97;5051864;28;20025;-28
2022/06/12 10:08:53;;;;;;;2.00;1.60;;;;;;;26.00;33.48;97154.19;5051813;28;20063;-28
2022/06/12 10:11:44;;;;;;;3.70;1.50;;;;;;;25.98;33.82;97146.38;5051464;28;20032;-28
2022/06/12 10:14:20;;;;;;;2.17;1.60;;;;;;;26.02;33.94;97127.41;5051320;28;20115;-28
2022/06/12 10:16:48;;;;;;;1.85;1.33;;;;;;;25.90;33.94;97125.19;5093936;27;20035;-28
2022/06/12 10:19:37;;;;;;;3.40;1.75;;;;;;;25.97;33.67;97139.28;5134698;27;20398;-29
2022/06/12 10:22:15;;;;;;;2.33;1.60;;;;;;;26.07;33.30;97150.91;5120273;27;20043;-29
2022/06/12 10:24:40;;;;;;;3.63;1.60;;;;;;;26.03;33.63;97150.41;5134698;27;20018;-28
2022/06/12 10:27:11;;;;;;;2.10;1.38;;;;;;;26.01;33.27;97155.72;5134539;27;20079;-28
2022/06/12 10:29:44;;;;;;;5.47;1.80;;;;;;;26.04;33.15;97144.34;5134780;27;20071;-28
2022/06/12 10:32:16;;;;;;;2.40;1.65;;;;;;;26.00;33.23;97138.28;5134600;27;20030;-28
2022/06/12 10:34:41;;;;;;;6.18;2.30;;;;;;;26.06;33.39;97146.59;5132230;27;20027;-29
2022/06/12 10:37:27;;;;;;;6.45;1.80;;;;;;;26.07;33.38;97143.31;5132342;27;20027;-28
2022/06/12 10:40:06;;;;;;;3.80;1.60;;;;;;;26.00;33.12;97141.06;5134560;27;20027;-28
2022/06/12 10:42:43;;;;;;;4.00;1.40;;;;;;;26.02;33.15;97129.44;5134727;27;20082;-29
2022/06/12 10:45:21;;;;;;;5.28;1.77;;;;;;;26.03;33.32;97150.41;5134386;27;20034;-28
2022/06/12 10:47:48;;;;;;;3.10;1.80;;;;;;;26.10;32.97;97150.59;5134616;27;20023;-28
2022/06/12 10:50:19;;;;;;;2.47;1.50;;;;;;;26.18;32.88;97139.72;5134576;27;20356;-29
2022/06/12 10:52:58;;;;;;;3.58;1.73;;;;;;;26.18;32.84;97125.81;5134483;27;20448;-28
2022/06/12 10:55:55;;;;;;;1.75;1.60;;;;;;;26.13;33.07;97132.16;5134326;28;20045;-28
2022/06/12 10:58:48;;;;;;;2.30;1.40;;;;;;;26.14;32.98;97119.75;5134174;28;20059;-28
2022/06/12 11:01:25;;;;;;;2.53;1.48;;;;;;;26.14;32.92;97122.53;5134383;28;20136;-29
2022/06/12 11:04:13;;;;;;;1.83;1.40;;;;;;;26.10;33.18;97122.81;5115744;28;20368;-28
2022/06/12 11:07:09;;;;;;;2.33;1.58;;;;;;;26.11;33.21;97124.31;5134495;28;20074;-28
2022/06/12 11:09:59;;;;;;;2.13;1.50;;;;;;;26.19;33.29;97112.66;5134323;28;20027;-29
2022/06/12 11:12:27;;;;;;;1.52;1.40;;;;;;;26.17;33.25;97102.06;5133877;28;20043;-27
2022/06/12 11:15:14;;;;;;;1.70;1.45;;;;;;;26.19;33.00;97107.13;5134338;28;20023;-28
2022/06/12 11:18:02;;;;;;;3.55;1.42;;;;;;;26.17;33.20;97115.97;5133938;28;20391;-28
2022/06/12 11:20:58;;;;;;;2.45;1.38;;;;;;;26.15;33.33;97106.63;5134148;28;20054;-28
2022/06/12 11:23:58;;;;;;;2.97;1.70;;;;;;;26.22;33.25;97101.25;5133998;28;20033;-28
2022/06/12 11:26:51;;;;;;;1.55;1.45;;;;;;;26.26;32.88;97106.56;5134111;27;20019;-30
2022/06/12 11:29:35;;;;;;;1.85;1.30;;;;;;;26.19;33.14;97113.44;5138144;27;20519;-27
2022/06/12 11:32:22;;;;;;;3.53;1.35;;;;;;;26.19;33.18;97105.09;5138002;27;20031;-28
2022/06/12 11:35:11;;;;;;;1.85;1.20;;;;;;;26.25;33.04;97110.59;5138017;27;20011;-28
2022/06/12 11:37:37;;;;;;;1.83;1.42;;;;;;;26.17;33.09;97099.28;5137518;27;20027;-27
2022/06/12 11:40:24;;;;;;;2.10;1.50;;;;;;;26.20;33.25;97092.69;5137928;27;20030;-29
2022/06/12 11:43:21;;;;;;;1.63;1.52;;;;;;;26.26;33.45;97090.63;5137876;27;20025;-28
2022/06/12 11:46:08;;;;;;;1.75;1.60;;;;;;;26.20;33.21;97089.91;5102656;27;20039;-28
2022/06/12 11:48:40;;;;;;;2.95;1.60;;;;;;;26.17;33.68;97088.16;5137740;27;20046;-29
2022/06/12 11:51:32;;;;;;;2.17;1.40;;;;;;;26.20;33.42;97081.59;5137483;27;20049;-29
2022/06/12 11:54:19;;;;;;;2.15;1.50;;;;;;;26.31;33.15;97084.31;5137901;27;20035;-28
2022/06/12 11:56:45;;;;;;;2.22;1.42;;;;;;;26.26;33.07;97090.63;5137388;27;20023;-28
2022/06/12 11:59:25;;;;;;;2.90;1.80;;;;;;;26.31;32.96;97084.31;5137585;27;20019;-28
2022/06/12 12:02:11;;;;;;;1.73;1.35;;;;;;;26.34;33.02;97080.47;5137398;27;20019;-28
2022/06/12 12:05:06;;;;;;;1.33;1.23;;;;;;;26.32;32.95;97077.47;5137453;27;20407;-28
2022/06/12 12:07:53;;;;;;;1.50;1.40;;;;;;;26.29;33.40;97088.88;5137520;27;20566;-28
2022/06/12 12:10:21;;;;;;;1.42;1.33;;;;;;;26.30;33.05;97091.13;5137342;27;20030;-27
2022/06/12 12:13:10;;;;;;;2.58;1.50;;;;;;;26.31;33.43;97087.09;5137022;27;20070;-28
2022/06/12 12:15:44;;;;;;;2.05;1.50;;;;;;;26.31;33.39;97078.75;5137289;27;20038;-30
2022/06/12 12:18:21;;;;;;;2.58;1.33;;;;;;;26.36;32.95;97089.06;5137015;27;20428;-29
2022/06/12 12:20:50;;;;;;;1.95;1.40;;;;;;;26.36;33.22;97088.31;5137004;27;20023;-28